Аэропорт: Внуково. Москва

ICAO: UUWW

METAR:
2018/11/19 10:00
UUWW 191000Z 36003MPS 9999 OVC006 02/00 Q1030 R06/290050 NOSIG
METAR:
2018/11/19 09:21
TAF UUWW 190759Z 1909/2009 36003MPS 9000 OVC006 TX01/1909Z TNM04/2005Z 
      TEMPO 1909/1918 3100 -SN BR OVC003 
      TEMPO 1918/2008 2100 -SN BR BKN002